Hilversum Aerodrome

EHHV · North Holland, 荷兰

METAR的历史 EHHV · Hilversum Aerodrome

下面你可以看到过去几天的METARs。 选择年份以浏览从2007年开始的旧METAR。

2024年4月22日

时间 代码 天气 温度 能见度 天花板 METAR/SPECI
05:25
V
5 °C 10 km+ - 010° 010° 3 kt METAR EHAM 220325Z 01003KT CAVOK 05/02 Q1027 NOSIG
04:55
V
5 °C 10 km+ - 340° 340° 5 kt METAR EHAM 220255Z 34005KT CAVOK 05/02 Q1027 NOSIG
04:25
V
5 °C 10 km+ - 010° 010° 5 kt METAR EHAM 220225Z 01005KT 9999 FEW031 05/02 Q1027 NOSIG
03:55
V
4 °C 10 km+ - 350° 350° 4 kt METAR EHAM 220155Z 35004KT 9999 FEW031 04/02 Q1027 NOSIG
03:25
V
3 °C 10 km+ - 340° 340° 4 kt METAR EHAM 220125Z 34004KT 9999 VCSH FEW025TCU 03/02 Q1027 NOSIG
02:55
V
2 °C 10 km+ - 330° 330° 4 kt METAR EHAM 220055Z 33004KT 9999 FEW033 02/01 Q1027 NOSIG
02:25
V
2 °C 10 km+ - 340° 340° 4 kt METAR EHAM 220025Z 34004KT 9999 FEW036 02/01 Q1028 NOSIG
01:55
V
2 °C 10 km+ - 340° 340° 4 kt METAR EHAM 212355Z 34004KT CAVOK 02/01 Q1028 NOSIG
01:25
V
3 °C 10 km+ - 330° 330° 5 kt METAR EHAM 212325Z 33005KT CAVOK 03/01 Q1028 NOSIG
00:55
L
3 °C 10 km+ - 320° 320° 5 kt METAR EHAM 212255Z 32005KT 9999 VV/// 03/01 Q1028 NOSIG
00:25
V
4 °C 10 km+ - 350° 350° 5 kt METAR EHAM 212225Z 35005KT CAVOK 04/01 Q1028 NOSIG

2024年4月21日

时间 代码 天气 温度 能见度 天花板 METAR/SPECI
23:55
V
5 °C 10 km+ - 360° 360° 6 kt METAR EHAM 212155Z 36006KT CAVOK 05/01 Q1028 NOSIG
23:25
V
6 °C 10 km+ - 020° 020° 7 kt METAR EHAM 212125Z 02007KT 330V040 CAVOK 06/02 Q1028 NOSIG
22:55
V
6 °C 10 km+ - 010° 010° 7 kt METAR EHAM 212055Z 01007KT 340V050 9999 FEW034 06/02 Q1028 NOSIG
22:25
V
7 °C 10 km+ - 020° 020° 8 kt METAR EHAM 212025Z 02008KT 350V050 9999 FEW025 07/02 Q1028 NOSIG
21:55
V
7 °C 10 km+ - 020° 020° 10 kt METAR EHAM 211955Z 02010KT 9999 FEW025 07/02 Q1028 NOSIG
21:25
V
7 °C 10 km+ - 030° 030° 10 kt METAR EHAM 211925Z 03010KT 360V060 9999 VCSH FEW027TCU 07/02 Q1027 NOSIG
20:55
V
8 °C 10 km+ - 030° 030° 12 kt METAR EHAM 211855Z 03012KT 340V060 9999 VCSH FEW027TCU 08/03 Q1027 NOSIG
20:25
V
8 °C 10 km+ - 010° 010° 4 kt METAR EHAM 211825Z 01004KT 330V050 9999 VCSH FEW027TCU 08/04 Q1027 NOSIG
19:55
V
6 °C 10 km+ - 010° 010° 4 kt METAR EHAM 211755Z 01004KT 340V050 9999 VCSH FEW027CB 06/04 Q1027 BECMG FEW035
19:25
V
7 °C 10 km+ - 050° 050° 3 kt METAR EHAM 211725Z 05003KT 360V100 9999 -SHRA FEW027CB SCT035 07/04 Q1027 NOSIG
18:55
V
8 °C 10 km+ - 060° 060° 16 kt METAR EHAM 211655Z 06016KT 020V100 9999 VCSH FEW027CB SCT030 08/03 Q1026 NOSIG
18:25
V
10 °C 10 km+ - 020° 020° 11 kt METAR EHAM 211625Z 02011KT 340V070 9999 VCSH FEW018 FEW028CB 10/03 Q1026 NOSIG
17:55
V
9 °C 10 km+ - 010° 010° 11 kt METAR EHAM 211555Z 01011KT 330V050 9999 -SHRA FEW018 FEW032CB 09/03 Q1026 BECMG FEW030
17:25
V
10 °C 10 km+ - 040° 040° 11 kt METAR EHAM 211525Z 04011KT 360V080 9999 VCSH FEW018 FEW032CB 10/03 Q1026 BECMG FEW030
16:55
V
11 °C 10 km+ - 030° 030° 10 kt METAR EHAM 211455Z 03010KT 320V070 9999 VCSH FEW032CB 11/02 Q1026 TEMPO 6000 SHRA
16:25
V
10 °C 10 km+ - 020° 020° 10 kt METAR EHAM 211425Z 02010KT 340V050 9999 FEW032CB 10/03 Q1026 TEMPO 6000 SHRA
15:55
V
12 °C 10 km+ - 360° 360° 9 kt METAR EHAM 211355Z 36009KT 310V080 9999 -SHRA FEW032CB SCT037 12/03 Q1026 TEMPO FM1430 6000 SHRAGS
15:25
V
10 °C 10 km+ - 070° 070° 8 kt METAR EHAM 211325Z 07008KT 360V110 9999 FEW038TCU 10/M00 Q1026 TEMPO FM1430 6000 SHRAGS SCT025CB
14:55
V
10 °C 10 km+ - 060° 060° 10 kt METAR EHAM 211255Z 06010KT 030V100 9999 FEW035TCU SCT036 10/00 Q1026 NOSIG
14:25
V
10 °C 10 km+ - 040° 040° 12 kt METAR EHAM 211225Z 04012KT 010V070 9999 SCT032 10/03 Q1026 NOSIG
13:55
V
10 °C 10 km+ - 040° 040° 12 kt METAR EHAM 211155Z 04012KT 360V110 9999 SCT030 10/02 Q1026 NOSIG
13:25
V
9 °C 10 km+ - 040° 040° 10 kt METAR EHAM 211125Z 04010KT 360V070 9999 SCT027 09/03 Q1026 NOSIG
12:55
V
9 °C 10 km+ - 040° 040° 13 kt METAR EHAM 211055Z 04013KT 360V070 9999 SCT027 09/03 Q1026 NOSIG
12:25
V
7 °C 10 km+ - 030° 030° 13 kt METAR EHAM 211025Z 03013KT 360V070 9999 FEW023 SCT028 07/02 Q1026 NOSIG
11:55
V
8 °C 10 km+ - 040° 040° 13 kt METAR EHAM 210955Z 04013KT 360V090 9999 SCT030 08/02 Q1026 NOSIG
11:25
V
8 °C 10 km+ - 030° 030° 12 kt METAR EHAM 210925Z 03012KT 360V080 9999 FEW029 08/02 Q1025 NOSIG
10:55
V
8 °C 10 km+ - 040° 040° 15 kt METAR EHAM 210855Z 04015KT 9999 FEW028 08/02 Q1025 NOSIG
10:25
V
8 °C 10 km+ - 040° 040° 14 kt METAR EHAM 210825Z 04014KT 010V070 9999 FEW025 08/02 Q1025 NOSIG
09:55
V
7 °C 10 km+ - 050° 050° 15 kt METAR EHAM 210755Z 05015KT 010V080 9999 FEW024 07/02 Q1024 NOSIG
09:25
V
7 °C 10 km+ - 040° 040° 15 kt METAR EHAM 210725Z 04015KT 360V080 9999 FEW022 07/02 Q1024 NOSIG
08:55
V
6 °C 10 km+ - 050° 050° 16 kt METAR EHAM 210655Z 05016KT 010V080 9999 FEW020 06/02 Q1024 NOSIG
08:25
V
6 °C 10 km+ - 040° 040° 15 kt METAR EHAM 210625Z 04015KT 350V060 9999 FEW012 06/02 Q1023 NOSIG
07:55
V
5 °C 10 km+ - 030° 030° 14 kt METAR EHAM 210555Z 03014KT 350V060 9999 FEW010 05/02 Q1022 NOSIG
07:25
V
5 °C 10 km+ - 020° 020° 12 kt METAR EHAM 210525Z 02012KT 340V060 9999 FEW024 05/02 Q1022 NOSIG
06:55
V
4 °C 10 km+ - 010° 010° 10 kt METAR EHAM 210455Z 01010KT 320V060 9999 FEW024 04/02 Q1022 NOSIG
06:25
V
4 °C 10 km+ - 360° 360° 11 kt METAR EHAM 210425Z 36011KT 320V050 9999 FEW024 04/02 Q1021 NOSIG
05:55
V
3 °C 10 km+ - 350° 350° 7 kt METAR EHAM 210355Z 35007KT 9999 FEW025 03/02 Q1021 NOSIG
05:25
V
3 °C 10 km+ - 340° 340° 8 kt METAR EHAM 210325Z 34008KT 310V010 9999 VCSH FEW014 FEW025CB 03/01 Q1021 RESHRA NOSIG
04:55
M
3 °C 5 km - 360° 360° 17 - 29 kt METAR EHAM 210255Z 36017G29KT 330V050 5000 SHRAGS FEW011 SCT018 SCT025CB 03/02 Q1022 BECMG 34012KT 9999 NSW
04:25
V
4 °C 10 km+ - 310° 310° 9 kt METAR EHAM 210225Z 31009KT 9999 FEW025CB 04/02 Q1021 TEMPO 36025G35KT 6000 SHRA
03:55
V
4 °C 10 km+ - 320° 320° 10 kt METAR EHAM 210155Z 32010KT 9999 FEW025 04/01 Q1022 TEMPO 36020G30KT 6000 SHRA SCT025CB
03:25
V
4 °C 10 km+ - 340° 340° 9 kt METAR EHAM 210125Z 34009KT 300V010 9999 FEW023 04/01 Q1022 TEMPO 36020G30KT 6000 SHRA SCT025CB
02:55
V
4 °C 10 km+ - 330° 330° 10 kt METAR EHAM 210055Z 33010KT 300V360 9999 FEW012 FEW020CB 04/00 Q1022 TEMPO 36020G30KT -SHRA
02:25
V
5 °C 10 km+ - 330° 330° 16 kt METAR EHAM 210025Z 33016KT 9999 -SHRA FEW012 FEW020CB 05/01 Q1023 TEMPO 34012KT
01:55
V
5 °C 10 km+ - 330° 330° 10 kt METAR EHAM 202355Z 33010KT 310V010 9999 VCSH FEW015 FEW020CB 05/02 Q1023 TEMPO 36018G28KT -SHRA
01:25
V
5 °C 10 km+ - 330° 330° 5 kt METAR EHAM 202325Z 33005KT 9999 -SHRA FEW020 FEW025TCU SCT030 05/02 Q1023 NOSIG
00:55
V
5 °C 10 km+ - 320° 320° 6 kt METAR EHAM 202255Z 32006KT 9999 VCSH FEW020 FEW025TCU 05/02 Q1024 NOSIG
00:25
V
5 °C 10 km+ - 340° 340° 12 - 22 kt METAR EHAM 202225Z 34012G22KT 310V010 9999 -SHRA FEW016 FEW020TCU SCT025 05/02 Q1024 NOSIG

2024年4月20日

时间 代码 天气 温度 能见度 天花板 METAR/SPECI
23:55
V
6 °C 10 km+ - 330° 330° 12 kt METAR EHAM 202155Z 33012KT 300V010 9999 -SHRA FEW019 FEW025TCU 06/01 Q1024 NOSIG
23:25
V
6 °C 10 km+ - 330° 330° 9 kt METAR EHAM 202125Z 33009KT 9999 VCSH FEW020 FEW025TCU 06/01 Q1024 NOSIG
22:55
V
6 °C 10 km+ - 340° 340° 8 kt METAR EHAM 202055Z 34008KT 310V010 9999 FEW025 SCT030 06/02 Q1024 NOSIG
22:25
V
6 °C 10 km+ - 350° 350° 10 kt METAR EHAM 202025Z 35010KT 320V020 9999 FEW030 06/02 Q1024 NOSIG
21:55
V
7 °C 10 km+ - 330° 330° 10 kt METAR EHAM 201955Z 33010KT 310V010 9999 SCT045 07/M00 Q1024 NOSIG
21:25
V
7 °C 10 km+ 4.200 ft 350° 350° 10 kt METAR EHAM 201925Z 35010KT 310V010 9999 FEW025 BKN042 07/02 Q1024 NOSIG
20:55
V
7 °C 10 km+ 4.200 ft 340° 340° 11 kt METAR EHAM 201855Z 34011KT 320V030 9999 FEW022 BKN042 07/03 Q1024 NOSIG
20:25
V
7 °C 10 km+ 3.200 ft 330° 330° 17 kt METAR EHAM 201825Z 33017KT 310V010 9999 -SHRA FEW017 SCT022CB BKN032 07/03 Q1024 NOSIG
19:55
V
8 °C 10 km+ - 350° 350° 15 kt METAR EHAM 201755Z 35015KT 320V040 9999 VCSH FEW017 FEW022CB SCT045 08/03 Q1023 NOSIG
19:25
V
9 °C 10 km+ - 350° 350° 16 kt METAR EHAM 201725Z 35016KT 310V020 9999 FEW017 FEW022CB 09/04 Q1023 NOSIG
18:55
V
8 °C 10 km+ - 350° 350° 15 kt METAR EHAM 201655Z 35015KT 310V040 9999 -SHRA FEW017 FEW022CB SCT025 08/05 Q1023 NOSIG
18:25
V
9 °C 10 km+ - 340° 340° 15 - 28 kt METAR EHAM 201625Z 34015G28KT 310V020 9999 FEW017 FEW022CB SCT025 09/04 Q1023 NOSIG
17:55
V
8 °C 10 km+ 4.500 ft 340° 340° 19 kt METAR EHAM 201555Z 34019KT 310V020 9999 -SHRA FEW015 FEW020CB BKN045 08/05 Q1023 NOSIG
17:25
V
8 °C 10 km+ 3.500 ft 340° 340° 17 kt METAR EHAM 201525Z 34017KT 310V010 9999 -SHRA FEW015 FEW020CB BKN035 08/05 Q1022 NOSIG
16:55
V
10 °C 10 km+ - 330° 330° 20 - 30 kt METAR EHAM 201455Z 33020G30KT 300V010 9999 FEW015 FEW020CB SCT025 10/05 Q1022 NOSIG
16:25
M
10 °C 10 km+ 2.500 ft 330° 330° 18 kt METAR EHAM 201425Z 33018KT 300V360 9999 FEW015 FEW020CB BKN025 10/06 Q1022 NOSIG
15:55
V
9 °C 10 km+ - 320° 320° 20 - 31 kt METAR EHAM 201355Z 32020G31KT 290V350 9999 -SHRA FEW015 SCT020CB 09/06 Q1022 TEMPO 7000
15:25
V
10 °C 10 km+ - 320° 320° 20 kt METAR EHAM 201325Z 32020KT 9999 VCSH FEW012 FEW020CB SCT022 10/07 Q1022 TEMPO 7000 -SHRA
14:55
V
10 °C 10 km+ - 320° 320° 18 kt METAR EHAM 201255Z 32018KT 280V340 9999 VCSH FEW012 FEW020CB SCT022 10/06 Q1022 TEMPO 7000 -SHRA
14:25
M
8 °C 6 km 2.400 ft 310° 310° 18 kt METAR EHAM 201225Z 31018KT 280V340 6000 SHRA SCT016 SCT020CB BKN024 08/06 Q1022 BECMG 9999 NSW
13:55
V
9 °C 10 km+ - 310° 310° 18 kt METAR EHAM 201155Z 31018KT 270V340 9999 VCSH FEW018 FEW021CB SCT024 09/06 Q1022 TEMPO 6000 SHRA
13:25
V
10 °C 10 km+ - 320° 320° 19 kt METAR EHAM 201125Z 32019KT 9999 VCSH FEW020TCU SCT024 10/04 Q1022 TEMPO 7000 -SHRA
12:55
V
10 °C 10 km+ - 320° 320° 19 kt METAR EHAM 201055Z 32019KT 9999 VCSH FEW020TCU SCT024 10/04 Q1022 TEMPO 7000 -SHRA
12:25
V
9 °C 10 km+ - 310° 310° 16 kt METAR EHAM 201025Z 31016KT 9999 FEW020TCU SCT024 09/04 Q1022 TEMPO 7000 -SHRA
11:55
V
9 °C 10 km+ - 330° 330° 16 kt METAR EHAM 200955Z 33016KT 300V360 9999 FEW020TCU SCT024 09/04 Q1022 TEMPO 7000 -SHRA
11:25
V
8 °C 10 km+ - 330° 330° 12 kt METAR EHAM 200925Z 33012KT 300V020 9999 VCSH FEW020TCU SCT023 08/04 Q1022 TEMPO 7000 -SHRA
10:55
V
9 °C 10 km+ - 340° 340° 15 kt METAR EHAM 200855Z 34015KT 290V010 9999 VCSH FEW020TCU SCT024 09/04 Q1022 TEMPO 7000 -SHRA
10:25
V
9 °C 10 km+ - 340° 340° 10 kt METAR EHAM 200825Z 34010KT 290V030 9999 VCSH FEW020TCU SCT024 09/04 Q1021 TEMPO 7000 -SHRA
09:55
V
7 °C 10 km+ 4.500 ft 330° 330° 9 kt METAR EHAM 200755Z 33009KT 9999 -SHRA FEW017 FEW020TCU BKN045 07/03 Q1021 TEMPO 7000
09:25
V
6 °C 10 km+ 4.500 ft 350° 350° 10 - 20 kt METAR EHAM 200725Z 35010G20KT 310V030 9999 VCSH FEW017 FEW020TCU BKN045 06/03 Q1021 TEMPO 7000 -SHRA
08:55
V
7 °C 10 km+ - 360° 360° 12 kt METAR EHAM 200655Z 36012KT 300V060 9999 -SHRA FEW017 FEW020TCU SCT030 07/04 Q1021 TEMPO 7000
08:25
V
7 °C 10 km+ - 340° 340° 10 kt METAR EHAM 200625Z 34010KT 290V020 9999 FEW020TCU SCT023 07/04 Q1020 TEMPO 7000 -SHRA
07:55
V
6 °C 10 km+ 4.500 ft 340° 340° 14 kt METAR EHAM 200555Z 34014KT 290V030 9999 -SHRA FEW020TCU SCT022 BKN045 06/03 Q1020 TEMPO 7000
07:25
V
6 °C 10 km+ - 340° 340° 11 kt METAR EHAM 200525Z 34011KT 300V020 9999 FEW020TCU SCT022 06/02 Q1019 TEMPO 7000 -SHRA
06:55
V
7 °C 10 km+ - 350° 350° 15 kt METAR EHAM 200455Z 35015KT 320V020 9999 FEW020TCU 07/03 Q1019 TEMPO 7000 -SHRA
06:25
V
6 °C 10 km+ - 350° 350° 12 kt METAR EHAM 200425Z 35012KT 310V020 9999 -SHRA FEW020TCU SCT023 06/02 Q1019 TEMPO 7000
05:55
V
7 °C 10 km+ - 340° 340° 10 kt METAR EHAM 200355Z 34010KT 9999 -SHRA FEW020TCU SCT023 07/03 Q1018 TEMPO 7000
05:25
V
6 °C 10 km+ - 330° 330° 9 kt METAR EHAM 200325Z 33009KT 300V360 9999 VCSH FEW020TCU SCT023 06/03 Q1018 TEMPO 7000 -SHRA
04:55
V
6 °C 10 km+ - 330° 330° 9 kt METAR EHAM 200255Z 33009KT 9999 VCSH FEW017 FEW020TCU 06/03 Q1018 TEMPO 7000 -SHRA
04:25
V
7 °C 10 km+ - 330° 330° 9 kt METAR EHAM 200225Z 33009KT 9999 VCSH FEW020TCU SCT022 07/03 Q1017 TEMPO 7000 -SHRA
03:55
V
7 °C 10 km+ 4.000 ft 340° 340° 10 kt METAR EHAM 200155Z 34010KT 310V010 9999 -SHRA FEW020TCU SCT029 BKN040 07/02 Q1017 TEMPO 7000
03:25
V
7 °C 10 km+ 3.500 ft 340° 340° 8 kt METAR EHAM 200125Z 34008KT 300V020 9999 -SHRA FEW020TCU SCT026 BKN035 07/03 Q1017 TEMPO 7000
02:55
V
6 °C 10 km+ - 330° 330° 10 kt METAR EHAM 200055Z 33010KT 9999 FEW020TCU 06/03 Q1017 TEMPO 7000 -SHRA
02:25
V
7 °C 10 km+ - 340° 340° 11 kt METAR EHAM 200025Z 34011KT 9999 -SHRA FEW016 FEW020TCU SCT030 07/03 Q1017 TEMPO 7000
01:55
V
6 °C 10 km+ - 320° 320° 14 kt METAR EHAM 192355Z 32014KT 9999 -SHRA FEW016 FEW020TCU SCT023 06/04 Q1017 TEMPO 7000
01:25
V
7 °C 10 km+ - 340° 340° 12 kt METAR EHAM 192325Z 34012KT 300V020 9999 -SHRA FEW016 FEW020TCU SCT023 07/04 Q1016 TEMPO 7000
00:55
V
7 °C 10 km+ - 330° 330° 17 kt METAR EHAM 192255Z 33017KT 300V020 9999 -SHRA FEW016 FEW020TCU SCT030 07/04 Q1016 TEMPO 7000
00:25
V
7 °C 10 km+ 3.700 ft 330° 330° 17 kt METAR EHAM 192225Z 33017KT 9999 VCSH FEW020TCU BKN037 07/03 Q1016 TEMPO 7000 SHRA

2024年4月19日

时间 代码 天气 温度 能见度 天花板 METAR/SPECI
23:55
V
7 °C 10 km+ 4.000 ft 330° 330° 18 kt METAR EHAM 192155Z 33018KT 310V010 9999 VCSH FEW018 FEW020TCU BKN040 07/04 Q1015 TEMPO 7000 SHRA
23:25
V
7 °C 10 km+ - 330° 330° 14 kt METAR EHAM 192125Z 33014KT 310V010 9999 VCSH FEW017 FEW020TCU SCT025 07/04 Q1015 TEMPO 7000 SHRA
22:55
V
7 °C 10 km+ - 330° 330° 18 kt METAR EHAM 192055Z 33018KT 310V020 9999 -SHRA FEW018 FEW020TCU SCT023 07/04 Q1015 TEMPO 7000 SHRA
22:25
V
7 °C 10 km+ - 330° 330° 15 kt METAR EHAM 192025Z 33015KT 310V010 9999 VCSH FEW020TCU SCT035 07/04 Q1014 TEMPO 7000 SHRA
21:55
V
7 °C 10 km+ - 330° 330° 14 kt METAR EHAM 191955Z 33014KT 300V010 9999 -SHRA FEW020TCU SCT033 07/04 Q1014 TEMPO 7000 SHRA
21:25
V
7 °C 9 km 4.200 ft 330° 330° 19 - 29 kt METAR EHAM 191925Z 33019G29KT 310V010 9000 -SHRA SCT020TCU SCT032 BKN042 07/04 Q1014 TEMPO 7000 SHRA
20:55
V
7 °C 10 km+ - 330° 330° 19 - 31 kt METAR EHAM 191855Z 33019G31KT 300V360 9999 SCT020TCU SCT032 07/05 Q1013 TEMPO 7000 SHRA
20:25
V
7 °C 9 km - 320° 320° 19 kt METAR EHAM 191825Z 32019KT 9000 -SHRA SCT020TCU 07/04 Q1013 TEMPO 7000
19:55
V
7 °C 9 km 4.200 ft 320° 320° 21 - 31 kt METAR EHAM 191755Z 32021G31KT 300V360 9000 -SHRA SCT020TCU BKN042 07/05 Q1012 TEMPO 7000
19:25
V
8 °C 8 km 4.200 ft 320° 320° 21 kt METAR EHAM 191725Z 32021KT 8000 -SHRA FEW022TCU SCT025 BKN042 08/05 Q1012 NOSIG
18:55
V
8 °C 9 km 4.300 ft 320° 320° 24 kt METAR EHAM 191655Z 32024KT 9000 -SHRA FEW022TCU SCT025 BKN043 08/04 Q1012 NOSIG
18:25
V
9 °C 10 km+ - 320° 320° 23 - 33 kt METAR EHAM 191625Z 32023G33KT 290V010 9999 VCSH FEW022TCU SCT025 09/04 Q1011 NOSIG
17:55
M
9 °C 10 km+ 2.700 ft 320° 320° 25 kt METAR EHAM 191555Z 32025KT 290V350 9999 VCSH FEW023TCU BKN027 09/05 Q1011 NOSIG
17:25
V
9 °C 10 km+ - 320° 320° 22 kt METAR EHAM 191525Z 32022KT 9999 VCSH FEW022CB SCT025 09/06 Q1010 BECMG FEW020TCU
16:55
V
8 °C 9 km - 320° 320° 21 - 32 kt METAR EHAM 191455Z 32021G32KT 290V360 9000 -SHRA FEW022CB SCT025 08/05 Q1010 BECMG FEW020TCU
16:25
V
9 °C 10 km+ - 320° 320° 23 kt METAR EHAM 191425Z 32023KT 300V360 9999 -SHRA FEW022TCU SCT027 09/05 Q1010 TEMPO 7000 SHRA
15:55
V
9 °C 10 km+ - 320° 320° 27 - 37 kt METAR EHAM 191355Z 32027G37KT 9999 VCSH FEW022TCU SCT027 09/03 Q1010 NOSIG
15:25
V
9 °C 10 km+ - 330° 330° 24 kt METAR EHAM 191325Z 33024KT 9999 FEW020TCU SCT023 09/04 Q1010 NOSIG
14:55
V
9 °C 10 km+ - 330° 330° 24 - 34 kt METAR EHAM 191255Z 33024G34KT 9999 SCT023 09/04 Q1009 TEMPO -SHRA FEW020CB
14:25
V
9 °C 10 km+ - 330° 330° 22 - 35 kt METAR EHAM 191225Z 33022G35KT 300V360 9999 FEW019CB SCT020 09/07 Q1009 BECMG SCT022
13:55
V
10 °C 8 km - 310° 310° 24 kt METAR EHAM 191155Z 31024KT 290V360 8000 -SHRA SCT017 FEW020CB 10/08 Q1008 TEMPO 7000 SHRA
13:25
V
10 °C 8 km - 320° 320° 25 kt METAR EHAM 191125Z 32025KT 8000 -SHRA FEW010 SCT016 FEW020CB 10/06 Q1008 RESHRAGS TEMPO 7000 SHRA
12:55
M
7 °C 5 km - 320° 320° 22 - 36 kt METAR EHAM 191055Z 32022G36KT 5000 SHRAGS FEW010 SCT016 SCT020CB 07/05 Q1008 BECMG 9999 -SHRA
12:25
M
10 °C 7 km - 300° 300° 20 kt METAR EHAM 191025Z 30020KT 7000 -SHRA SCT016 FEW020CB 10/07 Q1008 TEMPO 9999 NSW
11:55
V
11 °C 10 km+ - 300° 300° 20 kt METAR EHAM 190955Z 30020KT 9999 FEW008 SCT016 FEW020CB 11/08 Q1008 TEMPO 7000 -SHRA
11:25
M
10 °C 7 km - 300° 300° 15 kt METAR EHAM 190925Z 30015KT 7000 -SHRA SCT012 FEW020CB SCT035 10/08 Q1008 TEMPO 9999 NSW
10:55
V
10 °C 10 km+ - 300° 300° 13 kt METAR EHAM 190855Z 30013KT 9999 -SHRA FEW014 FEW020CB SCT035 10/08 Q1008 TEMPO 7000
10:25
M
9 °C 10 km+ 3.000 ft 320° 320° 13 kt METAR EHAM 190825Z 32013KT 9999 -SHRA FEW007 SCT012 SCT020CB BKN030 09/07 Q1008 RESHRA TEMPO 7000
09:55
M
9 °C 8 km 2.500 ft 310° 310° 12 kt METAR EHAM 190755Z 31012KT 8000 -SHRA FEW007 SCT012 SCT020CB BKN025 09/08 Q1008 TEMPO 7000
09:25
M
10 °C 10 km+ 1.600 ft 310° 310° 9 kt METAR EHAM 190725Z 31009KT 9999 -SHRA FEW008 BKN016 FEW020CB 10/09 Q1008 BECMG SCT018 TEMPO 7000
08:55
M
9 °C 8 km 1.700 ft 310° 310° 13 kt METAR EHAM 190655Z 31013KT 8000 -SHRA FEW007 BKN017 SCT020CB 09/09 Q1008 RESHRA BECMG SCT018 TEMPO 7000
08:25
M
10 °C 5 km 2.200 ft 300° 300° 12 kt METAR EHAM 190625Z 30012KT 5000 SHRA FEW010 SCT015 SCT018CB BKN022 10/09 Q1008 BECMG 9999 -SHRA TEMPO BKN018
07:55
V
10 °C 10 km+ - 300° 300° 13 kt METAR EHAM 190555Z 30013KT 270V330 9999 -SHRA FEW008 SCT016 FEW018TCU 10/09 Q1008 TEMPO 7000 BKN018 SCT020CB
报告变更